createdAt,value
2022-09-06T00:02:31.259Z,101747.88
2022-09-06T00:05:16.621Z,101737.44
2022-09-06T00:08:02.900Z,101730.66
2022-09-06T00:10:48.386Z,101738.06
2022-09-06T00:13:34.265Z,101733.69
2022-09-06T00:16:21.125Z,101735.50
2022-09-06T00:19:06.676Z,101728.75
2022-09-06T00:21:52.005Z,101727.81
2022-09-06T00:24:37.290Z,101735.19
2022-09-06T00:27:23.039Z,101728.28
2022-09-06T00:30:08.578Z,101729.41
2022-09-06T00:32:54.507Z,101729.13
2022-09-06T00:35:39.744Z,101731.88
2022-09-06T00:38:25.248Z,101724.00
2022-09-06T00:41:11.962Z,101720.41
2022-09-06T00:43:57.041Z,101718.81
2022-09-06T00:46:45.183Z,101725.50
2022-09-06T00:49:39.883Z,101724.84
2022-09-06T00:52:26.294Z,101701.34
2022-09-06T00:55:12.016Z,101707.22
2022-09-06T00:57:57.638Z,101705.88
2022-09-06T01:00:42.971Z,101713.81
2022-09-06T01:03:28.282Z,101718.16
2022-09-06T01:06:22.549Z,101700.56
2022-09-06T01:09:37.133Z,101708.53
2022-09-06T01:12:40.801Z,101721.38
2022-09-06T01:15:42.076Z,101718.81
2022-09-06T01:18:50.251Z,101723.16
2022-09-06T01:21:45.377Z,101723.41
2022-09-06T01:24:59.164Z,101733.44
2022-09-06T01:28:04.546Z,101726.41
2022-09-06T01:31:09.505Z,101729.84
2022-09-06T01:34:07.152Z,101741.41
2022-09-06T01:37:09.570Z,101745.69
2022-09-06T01:39:56.124Z,101741.50
2022-09-06T01:42:44.001Z,101738.09
2022-09-06T01:45:49.366Z,101728.25
2022-09-06T01:48:53.667Z,101724.25
2022-09-06T01:51:51.031Z,101707.69
2022-09-06T01:54:36.048Z,101711.19
2022-09-06T01:57:21.451Z,101707.84
2022-09-06T02:00:09.090Z,101714.00
2022-09-06T02:03:13.468Z,101716.78
2022-09-06T02:06:04.867Z,101716.38
2022-09-06T02:08:53.204Z,101704.16
2022-09-06T02:11:42.407Z,101712.66
2022-09-06T02:14:30.302Z,101717.03
2022-09-06T02:17:17.526Z,101718.06
2022-09-06T02:20:09.039Z,101711.84
2022-09-06T02:22:56.743Z,101711.47
2022-09-06T02:25:51.081Z,101704.69
2022-09-06T02:28:36.424Z,101708.00
2022-09-06T02:31:25.171Z,101702.53
2022-09-06T02:34:13.456Z,101707.72
2022-09-06T02:36:59.910Z,101695.69
2022-09-06T02:39:44.973Z,101696.75
2022-09-06T02:42:30.465Z,101694.84
2022-09-06T02:45:16.011Z,101692.47
2022-09-06T02:48:01.568Z,101692.97
2022-09-06T02:50:46.777Z,101691.41
2022-09-06T02:53:32.302Z,101689.53
2022-09-06T02:56:17.701Z,101693.81
2022-09-06T02:59:05.415Z,101682.22
2022-09-06T03:01:50.633Z,101687.94
2022-09-06T03:04:35.708Z,101689.81
2022-09-06T03:07:21.240Z,101691.41
2022-09-06T03:10:06.653Z,101682.72
2022-09-06T03:12:52.373Z,101684.91
2022-09-06T03:15:37.945Z,101686.66
2022-09-06T03:18:23.727Z,101679.38
2022-09-06T03:21:09.222Z,101684.69
2022-09-06T03:23:54.781Z,101683.31
2022-09-06T03:26:40.180Z,101681.84
2022-09-06T03:29:25.529Z,101690.06
2022-09-06T03:32:11.056Z,101692.25
2022-09-06T03:34:56.420Z,101697.56
2022-09-06T03:37:41.448Z,101693.13
2022-09-06T03:40:26.966Z,101694.13
2022-09-06T03:43:12.651Z,101697.97
2022-09-06T03:45:57.870Z,101688.31
2022-09-06T03:48:43.086Z,101688.16
2022-09-06T03:51:28.422Z,101690.03
2022-09-06T03:54:13.917Z,101683.03
2022-09-06T03:56:59.447Z,101683.19
2022-09-06T03:59:44.592Z,101678.06
2022-09-06T04:02:30.210Z,101681.66
2022-09-06T04:05:16.489Z,101678.94
2022-09-06T04:08:02.357Z,101684.34
2022-09-06T04:10:49.768Z,101678.47
2022-09-06T04:13:35.687Z,101671.47
2022-09-06T04:16:21.135Z,101662.16
2022-09-06T04:19:06.291Z,101663.28
2022-09-06T04:21:51.712Z,101666.25
2022-09-06T04:24:36.993Z,101661.94
2022-09-06T04:27:22.424Z,101648.72
2022-09-06T04:30:08.167Z,101650.25
2022-09-06T04:32:53.249Z,101636.09
2022-09-06T04:35:38.561Z,101648.63
2022-09-06T04:38:24.808Z,101657.31
2022-09-06T04:41:11.440Z,101668.66
2022-09-06T04:43:56.966Z,101660.88
2022-09-06T04:46:42.542Z,101656.38
2022-09-06T04:49:27.997Z,101647.66
2022-09-06T04:52:13.485Z,101639.72
2022-09-06T04:54:58.907Z,101641.28
2022-09-06T04:57:47.492Z,101655.53
2022-09-06T05:00:35.709Z,101660.84
2022-09-06T05:03:21.144Z,101665.16
2022-09-06T05:06:10.485Z,101660.16
2022-09-06T05:08:55.649Z,101656.91
2022-09-06T05:11:40.829Z,101664.75
2022-09-06T05:14:26.824Z,101666.91
2022-09-06T05:17:14.679Z,101671.34
2022-09-06T05:19:59.758Z,101671.69
2022-09-06T05:22:51.958Z,101668.03
2022-09-06T05:25:37.131Z,101669.66
2022-09-06T05:28:23.047Z,101665.63
2022-09-06T05:31:12.658Z,101665.47
2022-09-06T05:33:58.559Z,101666.84
2022-09-06T05:36:45.362Z,101659.59
2022-09-06T05:39:31.509Z,101663.25
2022-09-06T05:42:19.249Z,101672.66
2022-09-06T05:45:06.714Z,101669.66
2022-09-06T05:47:52.120Z,101671.03
2022-09-06T05:50:37.376Z,101676.66
2022-09-06T05:53:22.784Z,101678.34
2022-09-06T05:56:08.483Z,101679.56
2022-09-06T05:58:53.669Z,101684.00
2022-09-06T06:01:47.146Z,101685.13
2022-09-06T06:04:32.763Z,101681.00
2022-09-06T06:07:18.219Z,101678.16
2022-09-06T06:10:04.375Z,101676.41
2022-09-06T06:12:49.974Z,101665.13
2022-09-06T06:15:35.425Z,101661.47
2022-09-06T06:18:20.858Z,101659.34
2022-09-06T06:21:16.572Z,101660.97
2022-09-06T06:24:03.393Z,101652.28
2022-09-06T06:26:48.723Z,101665.06
2022-09-06T06:29:34.255Z,101661.81
2022-09-06T06:32:19.785Z,101659.16
2022-09-06T06:35:05.544Z,101656.88
2022-09-06T06:37:50.753Z,101655.81
2022-09-06T06:40:36.100Z,101654.25
2022-09-06T06:43:21.450Z,101637.34
2022-09-06T06:46:08.673Z,101637.91
2022-09-06T06:48:55.437Z,101640.66
2022-09-06T06:51:41.381Z,101640.97
2022-09-06T06:54:26.970Z,101639.56
2022-09-06T06:57:12.660Z,101635.41
2022-09-06T06:59:58.274Z,101637.50
2022-09-06T07:02:44.009Z,101632.09
2022-09-06T07:08:34.748Z,101622.38
2022-09-06T07:11:21.716Z,101634.81
2022-09-06T07:14:09.953Z,101628.88
2022-09-06T07:16:58.556Z,101633.31
2022-09-06T07:26:03.381Z,101641.63
2022-09-06T07:28:51.638Z,101644.78
2022-09-06T07:34:43.185Z,101636.22
2022-09-06T07:37:28.436Z,101631.25
2022-09-06T07:40:13.880Z,101635.44
2022-09-06T07:42:59.321Z,101632.69
2022-09-06T07:45:44.582Z,101635.38
2022-09-06T07:48:31.186Z,101640.97
2022-09-06T07:51:19.471Z,101638.47
2022-09-06T07:57:12.038Z,101622.47
2022-09-06T07:59:57.550Z,101649.25
2022-09-06T08:02:42.790Z,101647.28
2022-09-06T08:11:38.645Z,101654.03
2022-09-06T08:14:23.864Z,101662.38
2022-09-06T08:17:09.350Z,101664.41
2022-09-06T08:19:54.888Z,101666.63
2022-09-06T08:22:40.376Z,101657.06
2022-09-06T08:25:25.821Z,101665.59
2022-09-06T08:28:11.216Z,101661.28
2022-09-06T08:31:04.901Z,101658.38
2022-09-06T08:33:51.366Z,101656.44
2022-09-06T08:36:36.417Z,101657.38
2022-09-06T08:39:21.801Z,101659.53
2022-09-06T08:42:08.114Z,101653.78
2022-09-06T08:47:43.973Z,101648.41
2022-09-06T08:50:29.641Z,101650.50
2022-09-06T08:53:18.153Z,101648.69
2022-09-06T08:56:13.826Z,101651.22
2022-09-06T08:59:14.333Z,101654.22
2022-09-06T09:02:06.581Z,101655.69
2022-09-06T09:04:57.718Z,101661.09
2022-09-06T09:07:50.174Z,101663.91
2022-09-06T09:11:11.400Z,101661.38
2022-09-06T09:13:59.498Z,101668.81
2022-09-06T09:16:44.778Z,101663.81
2022-09-06T09:19:33.391Z,101661.53
2022-09-06T09:22:19.582Z,101670.38
2022-09-06T09:25:05.405Z,101664.47
2022-09-06T09:27:57.722Z,101665.53
2022-09-06T09:30:48.762Z,101664.94
2022-09-06T09:33:36.779Z,101662.13
2022-09-06T09:36:22.351Z,101677.28
2022-09-06T09:39:11.131Z,101666.47
2022-09-06T09:41:56.286Z,101664.88
2022-09-06T09:44:44.814Z,101657.50
2022-09-06T09:47:31.452Z,101645.91
2022-09-06T09:50:25.263Z,101641.53
2022-09-06T09:53:12.029Z,101628.25
2022-09-06T09:55:58.895Z,101616.19
2022-09-06T09:58:44.417Z,101612.97
2022-09-06T10:01:31.135Z,101612.72
2022-09-06T10:07:27.551Z,101584.47
2022-09-06T10:10:14.625Z,101590.03
2022-09-06T10:13:07.070Z,101587.34
2022-09-06T10:15:53.459Z,101576.84
2022-09-06T10:18:43.611Z,101571.09
2022-09-06T10:21:29.394Z,101558.94
2022-09-06T10:24:28.104Z,101545.25
2022-09-06T10:27:15.360Z,101545.38
2022-09-06T10:30:02.740Z,101540.78
2022-09-06T10:32:56.582Z,101538.41
2022-09-06T10:35:42.130Z,101535.50
2022-09-06T10:38:27.457Z,101529.72
2022-09-06T10:41:18.739Z,101533.22
2022-09-06T10:44:24.304Z,101532.81
2022-09-06T10:47:11.702Z,101539.63
2022-09-06T10:49:58.693Z,101534.91
2022-09-06T10:52:45.518Z,101540.78
2022-09-06T10:55:33.077Z,101536.66
2022-09-06T10:58:26.718Z,101537.09
2022-09-06T11:01:30.246Z,101550.09
2022-09-06T11:04:21.512Z,101556.84
2022-09-06T11:07:18.811Z,101554.97
2022-09-06T11:10:10.342Z,101544.25
2022-09-06T11:13:00.133Z,101544.34
2022-09-06T11:15:51.359Z,101541.59
2022-09-06T11:18:52.544Z,101549.66
2022-09-06T11:21:56.852Z,101547.06
2022-09-06T11:25:09.097Z,101542.13
2022-09-06T11:27:58.144Z,101541.59
2022-09-06T11:30:45.741Z,101546.97
2022-09-06T11:33:38.440Z,101535.03
2022-09-06T11:36:32.402Z,101534.19
2022-09-06T11:42:43.929Z,101528.25
2022-09-06T11:45:47.932Z,101535.38
2022-09-06T11:48:34.650Z,101525.72
2022-09-06T11:51:39.324Z,101539.81
2022-09-06T11:54:28.661Z,101536.38
2022-09-06T11:57:16.096Z,101530.31
2022-09-06T12:00:04.006Z,101525.78
2022-09-06T12:02:49.686Z,101524.38
2022-09-06T12:05:55.087Z,101514.09
2022-09-06T12:08:40.921Z,101529.06
2022-09-06T12:11:30.466Z,101537.22
2022-09-06T12:14:29.891Z,101528.72
2022-09-06T12:17:19.657Z,101521.53
2022-09-06T12:20:08.354Z,101520.13
2022-09-06T12:22:53.884Z,101510.38
2022-09-06T12:25:40.837Z,101500.69
2022-09-06T12:28:35.065Z,101497.47
2022-09-06T12:31:23.375Z,101491.19
2022-09-06T12:34:14.422Z,101489.16
2022-09-06T12:37:07.836Z,101480.34
2022-09-06T12:40:02.386Z,101488.06
2022-09-06T12:42:48.615Z,101478.78
2022-09-06T12:45:34.036Z,101475.25
2022-09-06T12:48:27.636Z,101479.63
2022-09-06T12:51:20.554Z,101468.47
2022-09-06T12:54:15.193Z,101477.88
2022-09-06T12:57:12.401Z,101479.44
2022-09-06T12:59:58.066Z,101484.06
2022-09-06T13:02:56.621Z,101476.34
2022-09-06T13:05:42.546Z,101458.94
2022-09-06T13:08:34.590Z,101450.25
2022-09-06T13:11:24.371Z,101453.84
2022-09-06T13:14:14.167Z,101446.88
2022-09-06T13:17:00.671Z,101436.91
2022-09-06T13:19:46.181Z,101444.97
2022-09-06T13:22:57.585Z,101446.41
2022-09-06T13:25:50.330Z,101442.31
2022-09-06T13:28:35.959Z,101442.81
2022-09-06T13:31:21.664Z,101448.16
2022-09-06T13:34:07.792Z,101454.94
2022-09-06T13:36:54.903Z,101445.25
2022-09-06T13:39:41.961Z,101461.00
2022-09-06T13:42:30.250Z,101463.59
2022-09-06T13:45:25.028Z,101469.16
2022-09-06T13:48:28.382Z,101482.34
2022-09-06T13:51:15.009Z,101489.03
2022-09-06T13:54:12.347Z,101485.75
2022-09-06T13:56:58.199Z,101478.94
2022-09-06T13:59:43.659Z,101498.47
2022-09-06T14:02:29.059Z,101495.59
2022-09-06T14:05:16.618Z,101496.56
2022-09-06T14:08:02.683Z,101493.75
2022-09-06T14:10:48.719Z,101488.16
2022-09-06T14:13:34.208Z,101471.91
2022-09-06T14:16:20.272Z,101468.19
2022-09-06T14:19:06.251Z,101463.06
2022-09-06T14:21:52.582Z,101453.38
2022-09-06T14:24:38.644Z,101456.19
2022-09-06T14:27:24.648Z,101462.47
2022-09-06T14:30:10.364Z,101463.22
2022-09-06T14:32:55.583Z,101449.88
2022-09-06T14:35:41.107Z,101448.53
2022-09-06T14:38:26.970Z,101456.41
2022-09-06T14:41:16.290Z,101453.53
2022-09-06T14:44:01.550Z,101459.78
2022-09-06T14:46:48.573Z,101460.78
2022-09-06T14:49:34.557Z,101451.03
2022-09-06T14:52:20.597Z,101444.50
2022-09-06T14:55:06.222Z,101438.09
2022-09-06T14:57:51.315Z,101448.84
2022-09-06T15:00:36.733Z,101435.00
2022-09-06T15:03:22.284Z,101438.81
2022-09-06T15:06:08.958Z,101446.28
2022-09-06T15:08:58.552Z,101434.69
2022-09-06T15:11:45.778Z,101435.50
2022-09-06T15:14:31.026Z,101411.78
2022-09-06T15:17:16.558Z,101419.66
2022-09-06T15:20:02.622Z,101410.59
2022-09-06T15:22:56.347Z,101409.97
2022-09-06T15:25:54.680Z,101413.41
2022-09-06T15:28:41.373Z,101421.50
2022-09-06T15:31:27.276Z,101420.16
2022-09-06T15:34:12.805Z,101420.16
2022-09-06T15:36:58.466Z,101427.75
2022-09-06T15:39:44.359Z,101422.75
2022-09-06T15:42:29.860Z,101407.72
2022-09-06T15:45:15.797Z,101402.75
2022-09-06T15:48:01.431Z,101403.19
2022-09-06T15:53:16.236Z,101401.47
2022-09-06T15:56:02.591Z,101394.22
2022-09-06T15:58:47.769Z,101387.94
2022-09-06T16:01:34.078Z,101396.50
2022-09-06T16:04:19.817Z,101387.41
2022-09-06T16:07:05.656Z,101381.50
2022-09-06T16:09:50.872Z,101390.41
2022-09-06T16:12:36.083Z,101390.56
2022-09-06T16:15:22.114Z,101389.25
2022-09-06T16:18:07.637Z,101388.16
2022-09-06T16:20:52.924Z,101385.00
2022-09-06T16:23:38.927Z,101387.31
2022-09-06T16:26:25.186Z,101367.44
2022-09-06T16:29:11.569Z,101367.56
2022-09-06T16:31:59.722Z,101371.06
2022-09-06T16:34:45.810Z,101370.72
2022-09-06T16:37:32.449Z,101371.31
2022-09-06T16:40:17.944Z,101372.06
2022-09-06T16:43:03.613Z,101361.78
2022-09-06T16:45:58.824Z,101367.66
2022-09-06T16:48:49.861Z,101350.53
2022-09-06T16:51:35.233Z,101354.66
2022-09-06T16:54:20.633Z,101345.34
2022-09-06T16:57:06.067Z,101325.19
2022-09-06T16:59:52.040Z,101340.22
2022-09-06T17:02:37.218Z,101340.19
2022-09-06T17:05:22.520Z,101338.34
2022-09-06T17:08:08.315Z,101333.91
2022-09-06T17:10:53.651Z,101340.41
2022-09-06T17:13:38.869Z,101343.72
2022-09-06T17:16:43.412Z,101334.69
2022-09-06T17:19:29.714Z,101335.22
2022-09-06T17:22:15.285Z,101331.75
2022-09-06T17:25:00.778Z,101336.88
2022-09-06T17:27:46.107Z,101333.47
2022-09-06T17:30:32.101Z,101334.66
2022-09-06T17:33:17.826Z,101341.16
2022-09-06T17:36:11.547Z,101340.72
2022-09-06T17:39:20.924Z,101342.91
2022-09-06T17:42:06.593Z,101347.28
2022-09-06T17:44:51.716Z,101346.31
2022-09-06T17:47:37.056Z,101346.66
2022-09-06T17:50:22.318Z,101354.41
2022-09-06T17:53:07.576Z,101356.03
2022-09-06T17:55:53.018Z,101349.69
2022-09-06T17:58:38.524Z,101350.03
2022-09-06T18:01:24.997Z,101338.75
2022-09-06T18:04:10.959Z,101339.59
2022-09-06T18:06:56.344Z,101341.59
2022-09-06T18:09:41.718Z,101331.94
2022-09-06T18:12:28.985Z,101342.28
2022-09-06T18:15:14.156Z,101348.22
2022-09-06T18:17:59.672Z,101351.41
2022-09-06T18:20:44.763Z,101352.44
2022-09-06T18:23:30.691Z,101353.16
2022-09-06T18:26:16.836Z,101357.50
2022-09-06T18:29:02.123Z,101360.69
2022-09-06T18:31:47.659Z,101370.56
2022-09-06T18:34:33.067Z,101364.16
2022-09-06T18:37:18.531Z,101361.38
2022-09-06T18:40:04.996Z,101356.47
2022-09-06T18:42:50.528Z,101358.88
2022-09-06T18:45:35.785Z,101354.03
2022-09-06T18:48:20.978Z,101359.72
2022-09-06T18:51:07.857Z,101357.22
2022-09-06T18:53:55.188Z,101359.03
2022-09-06T18:56:40.977Z,101363.59
2022-09-06T18:59:26.209Z,101366.00
2022-09-06T19:02:11.697Z,101356.78
2022-09-06T19:04:59.103Z,101358.56
2022-09-06T19:07:44.573Z,101367.97
2022-09-06T19:10:30.227Z,101365.81
2022-09-06T19:13:15.699Z,101372.91
2022-09-06T19:16:01.347Z,101370.47
2022-09-06T19:18:46.570Z,101368.50
2022-09-06T19:21:32.093Z,101369.63
2022-09-06T19:24:17.548Z,101370.59
2022-09-06T19:27:03.022Z,101366.34
2022-09-06T19:29:48.539Z,101369.75
2022-09-06T19:32:34.049Z,101364.94
2022-09-06T19:35:19.640Z,101342.91
2022-09-06T19:38:05.080Z,101351.81
2022-09-06T19:40:50.476Z,101362.00
2022-09-06T19:43:35.661Z,101357.09
2022-09-06T19:46:21.491Z,101355.75
2022-09-06T19:49:09.396Z,101348.00
2022-09-06T19:51:54.817Z,101340.63
2022-09-06T19:54:39.907Z,101343.63
2022-09-06T19:57:25.419Z,101339.88
2022-09-06T20:00:11.018Z,101333.25
2022-09-06T20:02:56.197Z,101334.47
2022-09-06T20:05:41.358Z,101333.53
2022-09-06T20:08:26.946Z,101332.19
2022-09-06T20:11:12.755Z,101333.03
2022-09-06T20:13:59.039Z,101330.28
2022-09-06T20:16:44.369Z,101339.19
2022-09-06T20:19:29.814Z,101334.00
2022-09-06T20:22:15.308Z,101341.09
2022-09-06T20:25:00.860Z,101332.38
2022-09-06T20:27:46.061Z,101334.75
2022-09-06T20:30:31.702Z,101321.41
2022-09-06T20:33:17.338Z,101336.34
2022-09-06T20:36:03.977Z,101334.88
2022-09-06T20:38:49.781Z,101323.03
2022-09-06T20:41:35.352Z,101325.31
2022-09-06T20:44:20.970Z,101321.03
2022-09-06T20:47:06.462Z,101314.88
2022-09-06T20:49:52.063Z,101318.66
2022-09-06T20:52:37.247Z,101327.47
2022-09-06T20:55:22.631Z,101314.72
2022-09-06T20:58:08.040Z,101314.25
2022-09-06T21:00:53.882Z,101309.91
2022-09-06T21:03:40.079Z,101314.63
2022-09-06T21:06:26.928Z,101318.88
2022-09-06T21:09:13.283Z,101302.78
2022-09-06T21:11:59.025Z,101300.25
2022-09-06T21:14:44.379Z,101300.63
2022-09-06T21:17:29.856Z,101291.06
2022-09-06T21:20:15.566Z,101295.53
2022-09-06T21:23:00.638Z,101289.88
2022-09-06T21:25:52.792Z,101286.75
2022-09-06T21:28:39.752Z,101278.91
2022-09-06T21:31:26.380Z,101282.22
2022-09-06T21:34:16.823Z,101283.91
2022-09-06T21:37:02.673Z,101282.00
2022-09-06T21:39:47.812Z,101281.16
2022-09-06T21:42:33.124Z,101289.00
2022-09-06T21:45:18.798Z,101284.00
2022-09-06T21:48:04.278Z,101283.13
2022-09-06T21:50:50.983Z,101284.75
2022-09-06T21:53:36.936Z,101280.97
2022-09-06T21:56:23.784Z,101278.97
2022-09-06T21:59:09.316Z,101271.13
2022-09-06T22:01:54.654Z,101269.34
2022-09-06T22:04:40.172Z,101273.59
2022-09-06T22:07:25.963Z,101269.94
2022-09-06T22:10:11.436Z,101270.69
2022-09-06T22:12:57.353Z,101260.38
2022-09-06T22:15:43.177Z,101267.19
2022-09-06T22:18:29.002Z,101261.13
2022-09-06T22:21:19.984Z,101262.38
2022-09-06T22:24:07.342Z,101270.31
2022-09-06T22:26:52.767Z,101271.59
2022-09-06T22:29:38.252Z,101273.09
2022-09-06T22:32:24.270Z,101268.09
2022-09-06T22:35:10.649Z,101265.41
2022-09-06T22:37:55.932Z,101252.16
2022-09-06T22:40:41.410Z,101269.25
2022-09-06T22:43:27.296Z,101264.63
2022-09-06T22:46:12.973Z,101268.22
2022-09-06T22:48:59.120Z,101267.44
2022-09-06T22:51:44.472Z,101273.00
2022-09-06T22:54:30.104Z,101264.31
2022-09-06T22:57:15.253Z,101249.13
2022-09-06T23:00:01.984Z,101251.84
2022-09-06T23:02:47.343Z,101242.22
2022-09-06T23:05:33.702Z,101238.84
2022-09-06T23:08:18.912Z,101225.72
2022-09-06T23:11:06.981Z,101224.56
2022-09-06T23:13:56.729Z,101220.78
2022-09-06T23:16:42.976Z,101226.06
2022-09-06T23:19:28.589Z,101230.91
2022-09-06T23:22:14.173Z,101229.03
2022-09-06T23:24:59.620Z,101229.28
2022-09-06T23:27:45.230Z,101236.31
2022-09-06T23:30:30.825Z,101229.13
2022-09-06T23:33:16.907Z,101220.59
2022-09-06T23:36:03.670Z,101221.84
2022-09-06T23:38:49.686Z,101219.09
2022-09-06T23:41:35.348Z,101218.13
2022-09-06T23:44:21.269Z,101205.97
2022-09-06T23:47:07.237Z,101193.38
2022-09-06T23:49:53.001Z,101190.84
2022-09-06T23:52:39.701Z,101191.78
2022-09-06T23:55:25.081Z,101193.88
2022-09-06T23:58:10.306Z,101193.28
